sensor_id;sensor_type;location;lat;lon;timestamp;temperature;humidity
2825;DHT22;1420;51.324;12.344;2023-06-10T00:01:54;18.90;99.90
2825;DHT22;1420;51.324;12.344;2023-06-10T00:04:21;18.80;99.90
2825;DHT22;1420;51.324;12.344;2023-06-10T00:06:48;18.70;99.90
2825;DHT22;1420;51.324;12.344;2023-06-10T00:09:15;18.80;99.90
2825;DHT22;1420;51.324;12.344;2023-06-10T00:11:42;18.70;99.90
2825;DHT22;1420;51.324;12.344;2023-06-10T00:14:10;18.60;99.90
2825;DHT22;1420;51.324;12.344;2023-06-10T00:16:37;18.60;99.90
2825;DHT22;1420;51.324;12.344;2023-06-10T00:19:04;18.60;99.90
2825;DHT22;1420;51.324;12.344;2023-06-10T00:21:32;18.60;99.90
2825;DHT22;1420;51.324;12.344;2023-06-10T00:24:00;18.50;99.90
2825;DHT22;1420;51.324;12.344;2023-06-10T00:26:27;18.50;99.90
2825;DHT22;1420;51.324;12.344;2023-06-10T00:28:54;18.40;99.90
2825;DHT22;1420;51.324;12.344;2023-06-10T00:31:22;18.30;99.90
2825;DHT22;1420;51.324;12.344;2023-06-10T00:33:49;18.30;99.90
2825;DHT22;1420;51.324;12.344;2023-06-10T00:36:16;18.30;99.90
2825;DHT22;1420;51.324;12.344;2023-06-10T00:38:43;18.20;99.90
2825;DHT22;1420;51.324;12.344;2023-06-10T00:41:10;18.10;99.90
2825;DHT22;1420;51.324;12.344;2023-06-10T00:43:38;18.00;99.90
2825;DHT22;1420;51.324;12.344;2023-06-10T00:46:06;17.90;99.90
2825;DHT22;1420;51.324;12.344;2023-06-10T00:48:33;17.90;99.90
2825;DHT22;1420;51.324;12.344;2023-06-10T00:51:00;17.90;99.90
2825;DHT22;1420;51.324;12.344;2023-06-10T00:53:27;17.90;99.90
2825;DHT22;1420;51.324;12.344;2023-06-10T00:55:54;17.80;99.90
2825;DHT22;1420;51.324;12.344;2023-06-10T00:58:22;17.70;99.90
2825;DHT22;1420;51.324;12.344;2023-06-10T01:00:50;17.60;99.90
2825;DHT22;1420;51.324;12.344;2023-06-10T01:03:18;17.50;99.90
2825;DHT22;1420;51.324;12.344;2023-06-10T01:05:48;17.40;99.90
2825;DHT22;1420;51.324;12.344;2023-06-10T01:08:18;17.40;99.90
2825;DHT22;1420;51.324;12.344;2023-06-10T01:10:47;17.40;99.90
2825;DHT22;1420;51.324;12.344;2023-06-10T01:13:11;17.30;99.90
2825;DHT22;1420;51.324;12.344;2023-06-10T01:15:39;17.30;99.90
2825;DHT22;1420;51.324;12.344;2023-06-10T01:18:08;17.10;99.90
2825;DHT22;1420;51.324;12.344;2023-06-10T01:20:36;17.10;99.90
2825;DHT22;1420;51.324;12.344;2023-06-10T01:23:02;17.00;99.90
2825;DHT22;1420;51.324;12.344;2023-06-10T01:25:29;17.00;99.90
2825;DHT22;1420;51.324;12.344;2023-06-10T01:28:02;16.90;99.90
2825;DHT22;1420;51.324;12.344;2023-06-10T01:30:27;16.90;99.90
2825;DHT22;1420;51.324;12.344;2023-06-10T01:32:55;16.80;99.90
2825;DHT22;1420;51.324;12.344;2023-06-10T01:35:24;16.80;99.90
2825;DHT22;1420;51.324;12.344;2023-06-10T01:37:50;16.70;99.90
2825;DHT22;1420;51.324;12.344;2023-06-10T01:40:17;16.80;99.90
2825;DHT22;1420;51.324;12.344;2023-06-10T01:42:44;16.80;99.90
2825;DHT22;1420;51.324;12.344;2023-06-10T01:45:12;16.70;99.90
2825;DHT22;1420;51.324;12.344;2023-06-10T01:47:39;16.70;99.90
2825;DHT22;1420;51.324;12.344;2023-06-10T01:50:07;16.70;99.90
2825;DHT22;1420;51.324;12.344;2023-06-10T01:52:34;16.60;99.90
2825;DHT22;1420;51.324;12.344;2023-06-10T01:55:01;16.50;99.90
2825;DHT22;1420;51.324;12.344;2023-06-10T01:57:28;16.50;99.90
2825;DHT22;1420;51.324;12.344;2023-06-10T01:59:55;16.50;99.90
2825;DHT22;1420;51.324;12.344;2023-06-10T02:02:23;16.40;99.90
2825;DHT22;1420;51.324;12.344;2023-06-10T02:04:50;16.40;99.90
2825;DHT22;1420;51.324;12.344;2023-06-10T02:07:18;16.30;99.90
2825;DHT22;1420;51.324;12.344;2023-06-10T02:09:46;16.30;99.90
2825;DHT22;1420;51.324;12.344;2023-06-10T02:12:14;16.20;99.90
2825;DHT22;1420;51.324;12.344;2023-06-10T02:14:42;16.20;99.90
2825;DHT22;1420;51.324;12.344;2023-06-10T02:17:10;16.10;99.90
2825;DHT22;1420;51.324;12.344;2023-06-10T02:19:37;16.10;99.90
2825;DHT22;1420;51.324;12.344;2023-06-10T02:22:04;16.00;99.90
2825;DHT22;1420;51.324;12.344;2023-06-10T02:24:31;16.20;99.90
2825;DHT22;1420;51.324;12.344;2023-06-10T02:26:59;16.20;99.90
2825;DHT22;1420;51.324;12.344;2023-06-10T02:29:27;16.20;99.90
2825;DHT22;1420;51.324;12.344;2023-06-10T02:31:55;16.20;99.90
2825;DHT22;1420;51.324;12.344;2023-06-10T02:34:23;16.10;99.90
2825;DHT22;1420;51.324;12.344;2023-06-10T02:36:51;16.10;99.90
2825;DHT22;1420;51.324;12.344;2023-06-10T02:39:19;15.90;99.90
2825;DHT22;1420;51.324;12.344;2023-06-10T02:41:47;15.90;99.90
2825;DHT22;1420;51.324;12.344;2023-06-10T02:44:16;16.00;99.90
2825;DHT22;1420;51.324;12.344;2023-06-10T02:46:43;15.90;99.90
2825;DHT22;1420;51.324;12.344;2023-06-10T02:49:11;15.80;99.90
2825;DHT22;1420;51.324;12.344;2023-06-10T02:51:38;15.90;99.90
2825;DHT22;1420;51.324;12.344;2023-06-10T02:54:05;15.80;99.90
2825;DHT22;1420;51.324;12.344;2023-06-10T02:56:32;15.70;99.90
2825;DHT22;1420;51.324;12.344;2023-06-10T02:58:59;15.70;99.90
2825;DHT22;1420;51.324;12.344;2023-06-10T03:01:26;15.70;99.90
2825;DHT22;1420;51.324;12.344;2023-06-10T03:03:54;15.60;99.90
2825;DHT22;1420;51.324;12.344;2023-06-10T03:06:21;15.60;99.90
2825;DHT22;1420;51.324;12.344;2023-06-10T03:08:48;15.60;99.90
2825;DHT22;1420;51.324;12.344;2023-06-10T03:11:16;15.50;99.90
2825;DHT22;1420;51.324;12.344;2023-06-10T03:13:43;15.50;99.90
2825;DHT22;1420;51.324;12.344;2023-06-10T03:16:10;15.40;99.90
2825;DHT22;1420;51.324;12.344;2023-06-10T03:18:38;15.40;99.90
2825;DHT22;1420;51.324;12.344;2023-06-10T03:21:06;15.30;99.90
2825;DHT22;1420;51.324;12.344;2023-06-10T03:23:34;15.20;99.90
2825;DHT22;1420;51.324;12.344;2023-06-10T03:26:02;15.20;99.90
2825;DHT22;1420;51.324;12.344;2023-06-10T03:28:30;15.30;99.90
2825;DHT22;1420;51.324;12.344;2023-06-10T03:30:58;15.30;99.90
2825;DHT22;1420;51.324;12.344;2023-06-10T03:33:26;15.10;99.90
2825;DHT22;1420;51.324;12.344;2023-06-10T03:35:54;15.20;99.90
2825;DHT22;1420;51.324;12.344;2023-06-10T03:38:22;15.20;99.90
2825;DHT22;1420;51.324;12.344;2023-06-10T03:40:50;15.20;99.90
2825;DHT22;1420;51.324;12.344;2023-06-10T03:43:17;15.20;99.90
2825;DHT22;1420;51.324;12.344;2023-06-10T03:45:44;15.10;99.90
2825;DHT22;1420;51.324;12.344;2023-06-10T03:48:12;15.20;99.90
2825;DHT22;1420;51.324;12.344;2023-06-10T03:50:40;15.30;99.90
2825;DHT22;1420;51.324;12.344;2023-06-10T03:53:08;15.20;99.90
2825;DHT22;1420;51.324;12.344;2023-06-10T03:55:36;15.30;99.90
2825;DHT22;1420;51.324;12.344;2023-06-10T03:58:04;15.20;99.90
2825;DHT22;1420;51.324;12.344;2023-06-10T04:00:31;15.20;99.90
2825;DHT22;1420;51.324;12.344;2023-06-10T04:02:59;15.10;99.90
2825;DHT22;1420;51.324;12.344;2023-06-10T04:05:26;15.10;99.90
2825;DHT22;1420;51.324;12.344;2023-06-10T04:07:54;15.00;99.90
2825;DHT22;1420;51.324;12.344;2023-06-10T04:10:22;15.00;99.90
2825;DHT22;1420;51.324;12.344;2023-06-10T04:12:52;15.00;99.90
2825;DHT22;1420;51.324;12.344;2023-06-10T04:15:20;15.10;99.90
2825;DHT22;1420;51.324;12.344;2023-06-10T04:17:47;15.10;99.90
2825;DHT22;1420;51.324;12.344;2023-06-10T04:20:14;15.10;99.90
2825;DHT22;1420;51.324;12.344;2023-06-10T04:22:41;15.00;99.90
2825;DHT22;1420;51.324;12.344;2023-06-10T04:25:09;15.00;99.90
2825;DHT22;1420;51.324;12.344;2023-06-10T04:27:36;15.20;99.90
2825;DHT22;1420;51.324;12.344;2023-06-10T04:30:05;15.10;99.90
2825;DHT22;1420;51.324;12.344;2023-06-10T04:32:32;15.00;99.90
2825;DHT22;1420;51.324;12.344;2023-06-10T04:34:59;15.20;99.90
2825;DHT22;1420;51.324;12.344;2023-06-10T04:37:26;15.30;99.90
2825;DHT22;1420;51.324;12.344;2023-06-10T04:39:54;15.20;99.90
2825;DHT22;1420;51.324;12.344;2023-06-10T04:42:21;15.20;99.90
2825;DHT22;1420;51.324;12.344;2023-06-10T04:44:48;15.30;99.90
2825;DHT22;1420;51.324;12.344;2023-06-10T04:47:15;15.20;99.90
2825;DHT22;1420;51.324;12.344;2023-06-10T04:49:42;15.30;99.90
2825;DHT22;1420;51.324;12.344;2023-06-10T04:52:10;15.20;99.90
2825;DHT22;1420;51.324;12.344;2023-06-10T04:54:38;15.30;99.90
2825;DHT22;1420;51.324;12.344;2023-06-10T04:57:06;15.40;99.90
2825;DHT22;1420;51.324;12.344;2023-06-10T04:59:34;15.40;99.90
2825;DHT22;1420;51.324;12.344;2023-06-10T05:02:03;15.30;99.90
2825;DHT22;1420;51.324;12.344;2023-06-10T05:04:31;15.60;99.90
2825;DHT22;1420;51.324;12.344;2023-06-10T05:06:59;15.70;99.90
2825;DHT22;1420;51.324;12.344;2023-06-10T05:09:27;15.70;99.90
2825;DHT22;1420;51.324;12.344;2023-06-10T05:11:55;15.70;99.90
2825;DHT22;1420;51.324;12.344;2023-06-10T05:14:22;15.60;99.90
2825;DHT22;1420;51.324;12.344;2023-06-10T05:16:50;15.70;99.90
2825;DHT22;1420;51.324;12.344;2023-06-10T05:19:18;15.70;99.90
2825;DHT22;1420;51.324;12.344;2023-06-10T05:21:46;15.60;99.90
2825;DHT22;1420;51.324;12.344;2023-06-10T05:24:14;15.80;99.90
2825;DHT22;1420;51.324;12.344;2023-06-10T05:26:42;15.90;99.90
2825;DHT22;1420;51.324;12.344;2023-06-10T05:29:10;16.10;99.90
2825;DHT22;1420;51.324;12.344;2023-06-10T05:31:38;16.00;99.90
2825;DHT22;1420;51.324;12.344;2023-06-10T05:34:06;15.90;99.90
2825;DHT22;1420;51.324;12.344;2023-06-10T05:36:33;16.00;99.90
2825;DHT22;1420;51.324;12.344;2023-06-10T05:39:00;16.00;99.90
2825;DHT22;1420;51.324;12.344;2023-06-10T05:41:27;16.00;99.90
2825;DHT22;1420;51.324;12.344;2023-06-10T05:43:55;15.90;99.90
2825;DHT22;1420;51.324;12.344;2023-06-10T05:46:23;16.30;99.90
2825;DHT22;1420;51.324;12.344;2023-06-10T05:48:51;16.60;99.90
2825;DHT22;1420;51.324;12.344;2023-06-10T05:51:19;17.20;99.90
2825;DHT22;1420;51.324;12.344;2023-06-10T05:53:46;17.20;99.90
2825;DHT22;1420;51.324;12.344;2023-06-10T05:56:14;17.20;99.90
2825;DHT22;1420;51.324;12.344;2023-06-10T05:58:41;17.60;99.90
2825;DHT22;1420;51.324;12.344;2023-06-10T06:01:08;18.10;99.90
2825;DHT22;1420;51.324;12.344;2023-06-10T06:03:35;18.60;99.90
2825;DHT22;1420;51.324;12.344;2023-06-10T06:06:03;18.90;99.90
2825;DHT22;1420;51.324;12.344;2023-06-10T06:08:30;19.30;99.90
2825;DHT22;1420;51.324;12.344;2023-06-10T06:10:57;19.70;99.90
2825;DHT22;1420;51.324;12.344;2023-06-10T06:13:24;19.80;99.90
2825;DHT22;1420;51.324;12.344;2023-06-10T06:15:51;20.00;99.90
2825;DHT22;1420;51.324;12.344;2023-06-10T06:18:18;19.90;99.90
2825;DHT22;1420;51.324;12.344;2023-06-10T06:20:46;19.70;99.90
2825;DHT22;1420;51.324;12.344;2023-06-10T06:23:14;19.90;99.90
2825;DHT22;1420;51.324;12.344;2023-06-10T06:25:41;19.90;99.90
2825;DHT22;1420;51.324;12.344;2023-06-10T06:28:09;20.20;99.90
2825;DHT22;1420;51.324;12.344;2023-06-10T06:30:35;20.60;99.90
2825;DHT22;1420;51.324;12.344;2023-06-10T06:33:02;20.60;99.90
2825;DHT22;1420;51.324;12.344;2023-06-10T06:35:32;19.70;99.90
2825;DHT22;1420;51.324;12.344;2023-06-10T06:37:58;20.00;99.90
2825;DHT22;1420;51.324;12.344;2023-06-10T06:40:25;20.50;99.90
2825;DHT22;1420;51.324;12.344;2023-06-10T06:42:52;20.80;99.90
2825;DHT22;1420;51.324;12.344;2023-06-10T06:45:19;21.00;99.90
2825;DHT22;1420;51.324;12.344;2023-06-10T06:47:47;21.30;99.90
2825;DHT22;1420;51.324;12.344;2023-06-10T06:50:15;20.90;99.90
2825;DHT22;1420;51.324;12.344;2023-06-10T06:52:43;20.90;99.90
2825;DHT22;1420;51.324;12.344;2023-06-10T06:55:10;21.20;99.90
2825;DHT22;1420;51.324;12.344;2023-06-10T06:57:37;21.50;99.90
2825;DHT22;1420;51.324;12.344;2023-06-10T07:00:06;22.00;99.90
2825;DHT22;1420;51.324;12.344;2023-06-10T07:02:33;21.90;99.90
2825;DHT22;1420;51.324;12.344;2023-06-10T07:05:00;22.20;99.90
2825;DHT22;1420;51.324;12.344;2023-06-10T07:07:27;22.70;99.90
2825;DHT22;1420;51.324;12.344;2023-06-10T07:09:54;22.80;99.90
2825;DHT22;1420;51.324;12.344;2023-06-10T07:12:22;23.20;99.90
2825;DHT22;1420;51.324;12.344;2023-06-10T07:14:49;23.10;99.90
2825;DHT22;1420;51.324;12.344;2023-06-10T07:17:16;22.40;99.90
2825;DHT22;1420;51.324;12.344;2023-06-10T07:19:44;22.80;99.90
2825;DHT22;1420;51.324;12.344;2023-06-10T07:22:11;23.10;99.90
2825;DHT22;1420;51.324;12.344;2023-06-10T07:24:38;23.50;99.90
2825;DHT22;1420;51.324;12.344;2023-06-10T07:27:05;24.20;99.90
2825;DHT22;1420;51.324;12.344;2023-06-10T07:29:32;24.20;99.90
2825;DHT22;1420;51.324;12.344;2023-06-10T07:32:00;24.10;99.90
2825;DHT22;1420;51.324;12.344;2023-06-10T07:34:27;23.00;99.90
2825;DHT22;1420;51.324;12.344;2023-06-10T07:36:54;23.70;99.90
2825;DHT22;1420;51.324;12.344;2023-06-10T07:39:22;24.70;99.90
2825;DHT22;1420;51.324;12.344;2023-06-10T07:41:50;24.90;99.90
2825;DHT22;1420;51.324;12.344;2023-06-10T07:44:18;25.10;99.90
2825;DHT22;1420;51.324;12.344;2023-06-10T07:46:45;25.00;99.90
2825;DHT22;1420;51.324;12.344;2023-06-10T07:49:12;24.60;99.90
2825;DHT22;1420;51.324;12.344;2023-06-10T07:51:40;25.20;99.90
2825;DHT22;1420;51.324;12.344;2023-06-10T07:54:07;24.90;99.90
2825;DHT22;1420;51.324;12.344;2023-06-10T07:56:34;25.00;99.90
2825;DHT22;1420;51.324;12.344;2023-06-10T07:59:02;24.60;99.90
2825;DHT22;1420;51.324;12.344;2023-06-10T08:01:30;24.20;99.90
2825;DHT22;1420;51.324;12.344;2023-06-10T08:03:58;24.40;99.90
2825;DHT22;1420;51.324;12.344;2023-06-10T08:06:26;24.40;99.90
2825;DHT22;1420;51.324;12.344;2023-06-10T08:08:54;24.40;99.90
2825;DHT22;1420;51.324;12.344;2023-06-10T08:11:21;24.40;99.90
2825;DHT22;1420;51.324;12.344;2023-06-10T08:13:48;24.60;99.90
2825;DHT22;1420;51.324;12.344;2023-06-10T08:16:16;25.00;99.90
2825;DHT22;1420;51.324;12.344;2023-06-10T08:18:43;25.00;99.90
2825;DHT22;1420;51.324;12.344;2023-06-10T08:21:10;25.20;99.40
2825;DHT22;1420;51.324;12.344;2023-06-10T08:23:38;25.50;96.90
2825;DHT22;1420;51.324;12.344;2023-06-10T08:26:06;25.80;96.60
2825;DHT22;1420;51.324;12.344;2023-06-10T08:28:34;25.60;96.20
2825;DHT22;1420;51.324;12.344;2023-06-10T08:31:01;25.60;96.20
2825;DHT22;1420;51.324;12.344;2023-06-10T08:33:28;25.10;98.10
2825;DHT22;1420;51.324;12.344;2023-06-10T08:35:56;25.90;94.80
2825;DHT22;1420;51.324;12.344;2023-06-10T08:38:24;26.00;92.80
2825;DHT22;1420;51.324;12.344;2023-06-10T08:40:54;25.60;94.40
2825;DHT22;1420;51.324;12.344;2023-06-10T08:43:22;25.60;94.50
2825;DHT22;1420;51.324;12.344;2023-06-10T08:45:50;25.30;94.50
2825;DHT22;1420;51.324;12.344;2023-06-10T08:48:17;25.20;94.40
2825;DHT22;1420;51.324;12.344;2023-06-10T08:50:44;25.60;94.20
2825;DHT22;1420;51.324;12.344;2023-06-10T08:53:13;25.40;95.30
2825;DHT22;1420;51.324;12.344;2023-06-10T08:55:41;25.90;94.10
2825;DHT22;1420;51.324;12.344;2023-06-10T08:58:06;25.70;94.70
2825;DHT22;1420;51.324;12.344;2023-06-10T09:00:34;25.90;93.10
2825;DHT22;1420;51.324;12.344;2023-06-10T09:03:01;26.00;93.20
2825;DHT22;1420;51.324;12.344;2023-06-10T09:05:28;26.00;93.60
2825;DHT22;1420;51.324;12.344;2023-06-10T09:07:57;26.60;91.20
2825;DHT22;1420;51.324;12.344;2023-06-10T09:10:23;26.40;91.20
2825;DHT22;1420;51.324;12.344;2023-06-10T09:12:50;26.50;92.30
2825;DHT22;1420;51.324;12.344;2023-06-10T09:15:17;27.20;85.90
2825;DHT22;1420;51.324;12.344;2023-06-10T09:17:45;27.20;83.00
2825;DHT22;1420;51.324;12.344;2023-06-10T09:20:12;27.50;81.60
2825;DHT22;1420;51.324;12.344;2023-06-10T09:22:41;26.80;80.40
2825;DHT22;1420;51.324;12.344;2023-06-10T09:25:08;26.80;80.40
2825;DHT22;1420;51.324;12.344;2023-06-10T09:27:51;26.70;83.60
2825;DHT22;1420;51.324;12.344;2023-06-10T09:30:26;26.70;83.40
2825;DHT22;1420;51.324;12.344;2023-06-10T09:32:54;27.20;80.60
2825;DHT22;1420;51.324;12.344;2023-06-10T09:35:24;27.00;81.60
2825;DHT22;1420;51.324;12.344;2023-06-10T09:37:53;27.60;78.10
2825;DHT22;1420;51.324;12.344;2023-06-10T09:40:20;27.30;78.10
2825;DHT22;1420;51.324;12.344;2023-06-10T09:42:47;27.30;77.40
2825;DHT22;1420;51.324;12.344;2023-06-10T09:45:14;27.60;74.60
2825;DHT22;1420;51.324;12.344;2023-06-10T09:47:41;27.80;72.20
2825;DHT22;1420;51.324;12.344;2023-06-10T09:50:09;28.50;71.60
2825;DHT22;1420;51.324;12.344;2023-06-10T09:52:36;28.80;68.50
2825;DHT22;1420;51.324;12.344;2023-06-10T09:55:04;28.30;68.70
2825;DHT22;1420;51.324;12.344;2023-06-10T09:57:32;28.10;66.20
2825;DHT22;1420;51.324;12.344;2023-06-10T10:00:03;27.80;67.90
2825;DHT22;1420;51.324;12.344;2023-06-10T10:02:28;28.50;67.30
2825;DHT22;1420;51.324;12.344;2023-06-10T10:05:03;29.30;64.00
2825;DHT22;1420;51.324;12.344;2023-06-10T10:07:30;29.20;64.20
2825;DHT22;1420;51.324;12.344;2023-06-10T10:09:58;28.60;64.70
2825;DHT22;1420;51.324;12.344;2023-06-10T10:12:26;29.40;61.60
2825;DHT22;1420;51.324;12.344;2023-06-10T10:14:54;29.50;61.10
2825;DHT22;1420;51.324;12.344;2023-06-10T10:17:22;29.00;60.40
2825;DHT22;1420;51.324;12.344;2023-06-10T10:19:53;28.80;59.30
2825;DHT22;1420;51.324;12.344;2023-06-10T10:22:20;28.80;59.30
2825;DHT22;1420;51.324;12.344;2023-06-10T10:24:48;28.80;59.90
2825;DHT22;1420;51.324;12.344;2023-06-10T10:27:17;28.80;59.40
2825;DHT22;1420;51.324;12.344;2023-06-10T10:29:41;28.60;59.60
2825;DHT22;1420;51.324;12.344;2023-06-10T10:32:09;28.50;60.70
2825;DHT22;1420;51.324;12.344;2023-06-10T10:35:08;28.40;60.50
2825;DHT22;1420;51.324;12.344;2023-06-10T10:37:19;28.20;61.40
2825;DHT22;1420;51.324;12.344;2023-06-10T10:39:47;28.50;61.70
2825;DHT22;1420;51.324;12.344;2023-06-10T10:42:15;28.70;60.60
2825;DHT22;1420;51.324;12.344;2023-06-10T10:44:42;28.60;60.40
2825;DHT22;1420;51.324;12.344;2023-06-10T10:47:09;28.90;59.60
2825;DHT22;1420;51.324;12.344;2023-06-10T10:49:37;28.70;58.10
2825;DHT22;1420;51.324;12.344;2023-06-10T10:52:10;28.80;58.20
2825;DHT22;1420;51.324;12.344;2023-06-10T10:54:34;29.20;57.80
2825;DHT22;1420;51.324;12.344;2023-06-10T10:57:16;29.40;56.70
2825;DHT22;1420;51.324;12.344;2023-06-10T10:59:58;29.30;56.60
2825;DHT22;1420;51.324;12.344;2023-06-10T11:02:36;28.90;57.20
2825;DHT22;1420;51.324;12.344;2023-06-10T11:05:02;28.90;57.10
2825;DHT22;1420;51.324;12.344;2023-06-10T11:07:32;28.20;58.60
2825;DHT22;1420;51.324;12.344;2023-06-10T11:10:05;28.40;57.90
2825;DHT22;1420;51.324;12.344;2023-06-10T11:12:49;28.40;55.90
2825;DHT22;1420;51.324;12.344;2023-06-10T11:15:19;28.90;56.00
2825;DHT22;1420;51.324;12.344;2023-06-10T11:23:04;29.50;53.70
2825;DHT22;1420;51.324;12.344;2023-06-10T11:25:38;29.10;52.40
2825;DHT22;1420;51.324;12.344;2023-06-10T11:28:17;29.00;53.50
2825;DHT22;1420;51.324;12.344;2023-06-10T11:30:34;29.20;51.70
2825;DHT22;1420;51.324;12.344;2023-06-10T11:32:59;28.90;51.30
2825;DHT22;1420;51.324;12.344;2023-06-10T11:35:27;29.00;51.90
2825;DHT22;1420;51.324;12.344;2023-06-10T11:37:54;28.80;50.70
2825;DHT22;1420;51.324;12.344;2023-06-10T11:40:22;28.50;50.80
2825;DHT22;1420;51.324;12.344;2023-06-10T11:42:49;28.50;50.80
2825;DHT22;1420;51.324;12.344;2023-06-10T11:45:16;28.80;51.40
2825;DHT22;1420;51.324;12.344;2023-06-10T11:47:59;29.20;50.00
2825;DHT22;1420;51.324;12.344;2023-06-10T11:50:29;28.90;47.20
2825;DHT22;1420;51.324;12.344;2023-06-10T11:52:56;28.10;50.20
2825;DHT22;1420;51.324;12.344;2023-06-10T11:55:24;27.90;51.20
2825;DHT22;1420;51.324;12.344;2023-06-10T11:57:50;28.20;50.80
2825;DHT22;1420;51.324;12.344;2023-06-10T12:00:18;28.30;52.80
2825;DHT22;1420;51.324;12.344;2023-06-10T12:02:46;28.30;52.70
2825;DHT22;1420;51.324;12.344;2023-06-10T12:05:14;28.10;53.20
2825;DHT22;1420;51.324;12.344;2023-06-10T12:07:41;27.80;53.40
2825;DHT22;1420;51.324;12.344;2023-06-10T12:10:08;28.20;51.70
2825;DHT22;1420;51.324;12.344;2023-06-10T12:12:35;28.60;51.60
2825;DHT22;1420;51.324;12.344;2023-06-10T12:15:03;29.00;49.10
2825;DHT22;1420;51.324;12.344;2023-06-10T12:17:37;29.10;48.30
2825;DHT22;1420;51.324;12.344;2023-06-10T12:20:06;29.40;46.00
2825;DHT22;1420;51.324;12.344;2023-06-10T12:22:38;29.10;45.50
2825;DHT22;1420;51.324;12.344;2023-06-10T12:25:06;29.00;45.40
2825;DHT22;1420;51.324;12.344;2023-06-10T12:27:33;28.80;46.30
2825;DHT22;1420;51.324;12.344;2023-06-10T12:30:01;29.00;47.00
2825;DHT22;1420;51.324;12.344;2023-06-10T12:32:38;29.30;47.40
2825;DHT22;1420;51.324;12.344;2023-06-10T12:35:04;28.80;46.50
2825;DHT22;1420;51.324;12.344;2023-06-10T12:37:31;28.50;47.30
2825;DHT22;1420;51.324;12.344;2023-06-10T12:40:01;28.70;48.00
2825;DHT22;1420;51.324;12.344;2023-06-10T12:42:28;28.60;48.80
2825;DHT22;1420;51.324;12.344;2023-06-10T12:44:55;28.50;48.50
2825;DHT22;1420;51.324;12.344;2023-06-10T12:47:29;28.50;47.90
2825;DHT22;1420;51.324;12.344;2023-06-10T12:49:50;28.60;47.70
2825;DHT22;1420;51.324;12.344;2023-06-10T12:52:18;28.80;47.60
2825;DHT22;1420;51.324;12.344;2023-06-10T12:54:46;29.00;45.20
2825;DHT22;1420;51.324;12.344;2023-06-10T12:57:14;29.30;46.40
2825;DHT22;1420;51.324;12.344;2023-06-10T12:59:41;29.30;46.30
2825;DHT22;1420;51.324;12.344;2023-06-10T13:02:08;29.10;44.90
2825;DHT22;1420;51.324;12.344;2023-06-10T13:04:36;28.50;42.80
2825;DHT22;1420;51.324;12.344;2023-06-10T13:07:03;28.20;42.20
2825;DHT22;1420;51.324;12.344;2023-06-10T13:09:30;27.80;43.70
2825;DHT22;1420;51.324;12.344;2023-06-10T13:11:57;27.70;45.60
2825;DHT22;1420;51.324;12.344;2023-06-10T13:14:24;27.80;45.50
2825;DHT22;1420;51.324;12.344;2023-06-10T13:16:52;27.10;47.70
2825;DHT22;1420;51.324;12.344;2023-06-10T13:19:20;26.80;49.40
2825;DHT22;1420;51.324;12.344;2023-06-10T13:21:49;26.70;49.30
2825;DHT22;1420;51.324;12.344;2023-06-10T13:24:16;26.60;51.30
2825;DHT22;1420;51.324;12.344;2023-06-10T13:26:43;26.20;52.20
2825;DHT22;1420;51.324;12.344;2023-06-10T13:29:10;26.00;52.00
2825;DHT22;1420;51.324;12.344;2023-06-10T13:31:39;25.70;52.50
2825;DHT22;1420;51.324;12.344;2023-06-10T13:34:06;25.60;52.40
2825;DHT22;1420;51.324;12.344;2023-06-10T13:36:33;25.70;51.20
2825;DHT22;1420;51.324;12.344;2023-06-10T13:39:00;25.50;50.50
2825;DHT22;1420;51.324;12.344;2023-06-10T13:41:27;25.60;49.90
2825;DHT22;1420;51.324;12.344;2023-06-10T13:43:55;25.30;47.40
2825;DHT22;1420;51.324;12.344;2023-06-10T13:46:22;25.30;48.30
2825;DHT22;1420;51.324;12.344;2023-06-10T13:48:49;25.50;48.30
2825;DHT22;1420;51.324;12.344;2023-06-10T13:51:17;25.60;48.10
2825;DHT22;1420;51.324;12.344;2023-06-10T13:53:45;25.40;49.70
2825;DHT22;1420;51.324;12.344;2023-06-10T13:56:13;25.30;47.50
2825;DHT22;1420;51.324;12.344;2023-06-10T13:58:41;25.50;47.60
2825;DHT22;1420;51.324;12.344;2023-06-10T14:01:08;25.40;47.50
2825;DHT22;1420;51.324;12.344;2023-06-10T14:03:35;25.90;47.00
2825;DHT22;1420;51.324;12.344;2023-06-10T14:06:03;26.10;46.70
2825;DHT22;1420;51.324;12.344;2023-06-10T14:08:30;26.00;45.30
2825;DHT22;1420;51.324;12.344;2023-06-10T14:10:57;26.20;45.20
2825;DHT22;1420;51.324;12.344;2023-06-10T14:13:24;26.50;43.80
2825;DHT22;1420;51.324;12.344;2023-06-10T14:15:51;26.70;44.30
2825;DHT22;1420;51.324;12.344;2023-06-10T14:18:19;26.80;42.60
2825;DHT22;1420;51.324;12.344;2023-06-10T14:20:46;27.00;42.00
2825;DHT22;1420;51.324;12.344;2023-06-10T14:23:14;27.20;39.60
2825;DHT22;1420;51.324;12.344;2023-06-10T14:25:42;27.10;39.20
2825;DHT22;1420;51.324;12.344;2023-06-10T14:28:10;26.80;39.10
2825;DHT22;1420;51.324;12.344;2023-06-10T14:30:38;26.80;39.50
2825;DHT22;1420;51.324;12.344;2023-06-10T14:33:06;26.90;39.00
2825;DHT22;1420;51.324;12.344;2023-06-10T14:35:34;26.90;38.60
2825;DHT22;1420;51.324;12.344;2023-06-10T14:38:01;26.90;38.50
2825;DHT22;1420;51.324;12.344;2023-06-10T14:40:28;26.80;38.90
2825;DHT22;1420;51.324;12.344;2023-06-10T14:42:55;26.80;39.10
2825;DHT22;1420;51.324;12.344;2023-06-10T14:45:22;26.90;36.10
2825;DHT22;1420;51.324;12.344;2023-06-10T14:47:50;26.90;36.10
2825;DHT22;1420;51.324;12.344;2023-06-10T14:50:18;26.70;35.90
2825;DHT22;1420;51.324;12.344;2023-06-10T14:52:46;26.90;35.60
2825;DHT22;1420;51.324;12.344;2023-06-10T14:55:14;27.00;36.00
2825;DHT22;1420;51.324;12.344;2023-06-10T14:57:42;26.40;42.30
2825;DHT22;1420;51.324;12.344;2023-06-10T15:00:11;25.80;47.00
2825;DHT22;1420;51.324;12.344;2023-06-10T15:02:38;25.70;47.00
2825;DHT22;1420;51.324;12.344;2023-06-10T15:05:07;24.60;54.80
2825;DHT22;1420;51.324;12.344;2023-06-10T15:07:35;24.70;56.90
2825;DHT22;1420;51.324;12.344;2023-06-10T15:10:03;24.60;58.30
2825;DHT22;1420;51.324;12.344;2023-06-10T15:12:30;24.50;58.10
2825;DHT22;1420;51.324;12.344;2023-06-10T15:14:57;24.30;59.70
2825;DHT22;1420;51.324;12.344;2023-06-10T15:17:25;24.30;62.30
2825;DHT22;1420;51.324;12.344;2023-06-10T15:19:52;24.20;62.80
2825;DHT22;1420;51.324;12.344;2023-06-10T15:22:19;24.00;66.00
2825;DHT22;1420;51.324;12.344;2023-06-10T15:24:47;24.00;71.40
2825;DHT22;1420;51.324;12.344;2023-06-10T15:27:15;24.10;73.10
2825;DHT22;1420;51.324;12.344;2023-06-10T15:29:43;24.10;74.30
2825;DHT22;1420;51.324;12.344;2023-06-10T15:32:11;24.20;75.40
2825;DHT22;1420;51.324;12.344;2023-06-10T15:34:39;24.30;76.60
2825;DHT22;1420;51.324;12.344;2023-06-10T15:37:06;24.20;76.50
2825;DHT22;1420;51.324;12.344;2023-06-10T15:39:33;24.40;75.80
2825;DHT22;1420;51.324;12.344;2023-06-10T15:42:01;24.50;74.80
2825;DHT22;1420;51.324;12.344;2023-06-10T15:44:28;24.60;78.10
2825;DHT22;1420;51.324;12.344;2023-06-10T15:46:55;24.70;77.20
2825;DHT22;1420;51.324;12.344;2023-06-10T15:49:23;25.00;69.10
2825;DHT22;1420;51.324;12.344;2023-06-10T15:51:51;25.20;62.80
2825;DHT22;1420;51.324;12.344;2023-06-10T15:54:19;25.20;62.80